sensor_id;sensor_type;location;lat;lon;timestamp;P1;durP1;ratioP1;P2;durP2;ratioP2
56427;SDS011;42331;53.578;9.760;2023-04-07T00:02:08;12.27;;;8.13;;
56427;SDS011;42331;53.578;9.760;2023-04-07T00:04:38;14.95;;;7.95;;
56427;SDS011;42331;53.578;9.760;2023-04-07T00:07:09;14.65;;;8.65;;
56427;SDS011;42331;53.578;9.760;2023-04-07T00:09:40;13.67;;;8.23;;
56427;SDS011;42331;53.578;9.760;2023-04-07T00:12:11;13.68;;;8.38;;
56427;SDS011;42331;53.578;9.760;2023-04-07T00:14:42;12.45;;;6.30;;
56427;SDS011;42331;53.578;9.760;2023-04-07T00:17:12;11.63;;;7.47;;
56427;SDS011;42331;53.578;9.760;2023-04-07T00:19:43;13.85;;;7.88;;
56427;SDS011;42331;53.578;9.760;2023-04-07T00:22:14;10.13;;;6.18;;
56427;SDS011;42331;53.578;9.760;2023-04-07T00:24:44;14.10;;;8.32;;
56427;SDS011;42331;53.578;9.760;2023-04-07T00:27:15;12.27;;;8.15;;
56427;SDS011;42331;53.578;9.760;2023-04-07T00:29:46;14.40;;;8.27;;
56427;SDS011;42331;53.578;9.760;2023-04-07T00:32:17;13.05;;;7.63;;
56427;SDS011;42331;53.578;9.760;2023-04-07T00:34:47;13.52;;;7.88;;
56427;SDS011;42331;53.578;9.760;2023-04-07T00:37:18;12.45;;;7.70;;
56427;SDS011;42331;53.578;9.760;2023-04-07T00:39:49;22.05;;;7.90;;
56427;SDS011;42331;53.578;9.760;2023-04-07T00:42:20;12.68;;;7.90;;
56427;SDS011;42331;53.578;9.760;2023-04-07T00:44:51;12.13;;;7.05;;
56427;SDS011;42331;53.578;9.760;2023-04-07T00:47:22;11.38;;;7.78;;
56427;SDS011;42331;53.578;9.760;2023-04-07T00:49:53;11.95;;;7.75;;
56427;SDS011;42331;53.578;9.760;2023-04-07T00:52:23;14.57;;;7.25;;
56427;SDS011;42331;53.578;9.760;2023-04-07T00:54:59;15.35;;;7.40;;
56427;SDS011;42331;53.578;9.760;2023-04-07T00:57:29;13.88;;;7.57;;
56427;SDS011;42331;53.578;9.760;2023-04-07T01:00:00;12.25;;;7.80;;
56427;SDS011;42331;53.578;9.760;2023-04-07T01:02:33;12.10;;;7.50;;
56427;SDS011;42331;53.578;9.760;2023-04-07T01:05:22;12.15;;;7.38;;
56427;SDS011;42331;53.578;9.760;2023-04-07T01:08:23;12.35;;;7.32;;
56427;SDS011;42331;53.578;9.760;2023-04-07T01:11:02;12.93;;;7.07;;
56427;SDS011;42331;53.578;9.760;2023-04-07T01:13:41;11.43;;;7.20;;
56427;SDS011;42331;53.578;9.760;2023-04-07T01:16:22;11.65;;;6.95;;
56427;SDS011;42331;53.578;9.760;2023-04-07T01:18:58;12.32;;;7.63;;
56427;SDS011;42331;53.578;9.760;2023-04-07T01:21:33;11.23;;;7.43;;
56427;SDS011;42331;53.578;9.760;2023-04-07T01:26:43;14.13;;;7.45;;
56427;SDS011;42331;53.578;9.760;2023-04-07T01:32:02;11.13;;;7.43;;
56427;SDS011;42331;53.578;9.760;2023-04-07T01:34:35;12.00;;;7.93;;
56427;SDS011;42331;53.578;9.760;2023-04-07T01:37:07;12.90;;;7.03;;
56427;SDS011;42331;53.578;9.760;2023-04-07T01:39:38;14.35;;;7.35;;
56427;SDS011;42331;53.578;9.760;2023-04-07T01:42:09;15.18;;;7.57;;
56427;SDS011;42331;53.578;9.760;2023-04-07T01:44:40;13.35;;;7.53;;
56427;SDS011;42331;53.578;9.760;2023-04-07T01:47:12;12.30;;;7.20;;
56427;SDS011;42331;53.578;9.760;2023-04-07T01:49:44;11.52;;;7.43;;
56427;SDS011;42331;53.578;9.760;2023-04-07T01:52:16;10.70;;;6.95;;
56427;SDS011;42331;53.578;9.760;2023-04-07T01:54:47;12.48;;;7.38;;
56427;SDS011;42331;53.578;9.760;2023-04-07T01:57:18;12.80;;;7.37;;
56427;SDS011;42331;53.578;9.760;2023-04-07T01:59:49;11.77;;;7.18;;
56427;SDS011;42331;53.578;9.760;2023-04-07T02:02:20;9.82;;;5.68;;
56427;SDS011;42331;53.578;9.760;2023-04-07T02:04:55;13.00;;;7.35;;
56427;SDS011;42331;53.578;9.760;2023-04-07T02:10:27;10.13;;;7.00;;
56427;SDS011;42331;53.578;9.760;2023-04-07T02:13:00;10.88;;;6.45;;
56427;SDS011;42331;53.578;9.760;2023-04-07T02:15:33;11.77;;;7.13;;
56427;SDS011;42331;53.578;9.760;2023-04-07T02:18:05;10.88;;;7.07;;
56427;SDS011;42331;53.578;9.760;2023-04-07T02:20:39;12.35;;;7.07;;
56427;SDS011;42331;53.578;9.760;2023-04-07T02:23:12;12.10;;;6.72;;
56427;SDS011;42331;53.578;9.760;2023-04-07T02:25:43;11.05;;;7.28;;
56427;SDS011;42331;53.578;9.760;2023-04-07T02:28:14;7.80;;;5.20;;
56427;SDS011;42331;53.578;9.760;2023-04-07T02:30:45;8.40;;;5.13;;
56427;SDS011;42331;53.578;9.760;2023-04-07T02:33:16;12.13;;;6.65;;
56427;SDS011;42331;53.578;9.760;2023-04-07T02:35:47;10.75;;;6.18;;
56427;SDS011;42331;53.578;9.760;2023-04-07T02:38:18;10.73;;;6.50;;
56427;SDS011;42331;53.578;9.760;2023-04-07T02:40:48;10.68;;;6.18;;
56427;SDS011;42331;53.578;9.760;2023-04-07T02:43:19;10.18;;;6.15;;
56427;SDS011;42331;53.578;9.760;2023-04-07T02:45:50;11.60;;;6.47;;
56427;SDS011;42331;53.578;9.760;2023-04-07T02:48:21;9.32;;;6.15;;
56427;SDS011;42331;53.578;9.760;2023-04-07T02:50:52;10.55;;;5.45;;
56427;SDS011;42331;53.578;9.760;2023-04-07T02:53:22;6.90;;;4.53;;
56427;SDS011;42331;53.578;9.760;2023-04-07T02:55:53;11.27;;;5.80;;
56427;SDS011;42331;53.578;9.760;2023-04-07T02:58:24;10.95;;;5.90;;
56427;SDS011;42331;53.578;9.760;2023-04-07T03:00:55;12.10;;;5.53;;
56427;SDS011;42331;53.578;9.760;2023-04-07T03:03:25;9.32;;;5.70;;
56427;SDS011;42331;53.578;9.760;2023-04-07T03:05:56;9.48;;;5.68;;
56427;SDS011;42331;53.578;9.760;2023-04-07T03:08:27;10.40;;;6.15;;
56427;SDS011;42331;53.578;9.760;2023-04-07T03:10:57;9.70;;;6.00;;
56427;SDS011;42331;53.578;9.760;2023-04-07T03:13:28;9.63;;;5.68;;
56427;SDS011;42331;53.578;9.760;2023-04-07T03:15:59;10.35;;;5.25;;
56427;SDS011;42331;53.578;9.760;2023-04-07T03:18:30;7.88;;;5.20;;
56427;SDS011;42331;53.578;9.760;2023-04-07T03:21:01;9.32;;;5.43;;
56427;SDS011;42331;53.578;9.760;2023-04-07T03:23:32;10.40;;;5.87;;
56427;SDS011;42331;53.578;9.760;2023-04-07T03:26:03;9.85;;;5.50;;
56427;SDS011;42331;53.578;9.760;2023-04-07T03:28:34;9.38;;;6.03;;
56427;SDS011;42331;53.578;9.760;2023-04-07T03:31:05;10.13;;;5.40;;
56427;SDS011;42331;53.578;9.760;2023-04-07T03:33:35;8.77;;;4.90;;
56427;SDS011;42331;53.578;9.760;2023-04-07T03:36:06;10.52;;;5.35;;
56427;SDS011;42331;53.578;9.760;2023-04-07T03:38:37;12.37;;;5.67;;
56427;SDS011;42331;53.578;9.760;2023-04-07T03:41:08;6.90;;;5.25;;
56427;SDS011;42331;53.578;9.760;2023-04-07T03:43:38;12.52;;;5.50;;
56427;SDS011;42331;53.578;9.760;2023-04-07T03:46:09;9.93;;;5.53;;
56427;SDS011;42331;53.578;9.760;2023-04-07T03:48:40;8.98;;;5.00;;
56427;SDS011;42331;53.578;9.760;2023-04-07T03:51:11;9.23;;;5.37;;
56427;SDS011;42331;53.578;9.760;2023-04-07T03:53:41;10.07;;;5.55;;
56427;SDS011;42331;53.578;9.760;2023-04-07T03:56:12;10.43;;;5.13;;
56427;SDS011;42331;53.578;9.760;2023-04-07T03:58:43;9.82;;;5.32;;
56427;SDS011;42331;53.578;9.760;2023-04-07T04:01:15;10.52;;;5.10;;
56427;SDS011;42331;53.578;9.760;2023-04-07T04:03:46;8.10;;;4.93;;
56427;SDS011;42331;53.578;9.760;2023-04-07T04:06:18;10.23;;;5.50;;
56427;SDS011;42331;53.578;9.760;2023-04-07T04:08:48;8.18;;;4.85;;
56427;SDS011;42331;53.578;9.760;2023-04-07T04:11:19;8.75;;;5.55;;
56427;SDS011;42331;53.578;9.760;2023-04-07T04:13:51;9.13;;;5.10;;
56427;SDS011;42331;53.578;9.760;2023-04-07T04:16:21;10.13;;;4.93;;
56427;SDS011;42331;53.578;9.760;2023-04-07T04:18:52;7.78;;;4.55;;
56427;SDS011;42331;53.578;9.760;2023-04-07T04:21:23;7.53;;;4.70;;
56427;SDS011;42331;53.578;9.760;2023-04-07T04:23:53;6.88;;;4.85;;
56427;SDS011;42331;53.578;9.760;2023-04-07T04:26:24;7.47;;;4.85;;
56427;SDS011;42331;53.578;9.760;2023-04-07T04:28:55;8.32;;;5.22;;
56427;SDS011;42331;53.578;9.760;2023-04-07T04:31:26;10.00;;;4.97;;
56427;SDS011;42331;53.578;9.760;2023-04-07T04:33:56;9.23;;;4.88;;
56427;SDS011;42331;53.578;9.760;2023-04-07T04:36:27;8.43;;;5.68;;
56427;SDS011;42331;53.578;9.760;2023-04-07T04:38:58;10.43;;;5.20;;
56427;SDS011;42331;53.578;9.760;2023-04-07T04:41:28;8.57;;;4.80;;
56427;SDS011;42331;53.578;9.760;2023-04-07T04:43:59;9.77;;;5.22;;
56427;SDS011;42331;53.578;9.760;2023-04-07T04:46:30;6.68;;;3.75;;
56427;SDS011;42331;53.578;9.760;2023-04-07T04:49:01;7.88;;;4.75;;
56427;SDS011;42331;53.578;9.760;2023-04-07T04:51:32;7.60;;;3.60;;
56427;SDS011;42331;53.578;9.760;2023-04-07T04:54:02;7.18;;;4.40;;
56427;SDS011;42331;53.578;9.760;2023-04-07T04:56:35;7.80;;;4.97;;
56427;SDS011;42331;53.578;9.760;2023-04-07T04:59:06;8.50;;;5.07;;
56427;SDS011;42331;53.578;9.760;2023-04-07T05:01:36;8.55;;;4.68;;
56427;SDS011;42331;53.578;9.760;2023-04-07T05:04:07;9.05;;;5.13;;
56427;SDS011;42331;53.578;9.760;2023-04-07T05:06:39;8.15;;;4.68;;
56427;SDS011;42331;53.578;9.760;2023-04-07T05:09:09;7.05;;;4.40;;
56427;SDS011;42331;53.578;9.760;2023-04-07T05:11:40;8.07;;;4.70;;
56427;SDS011;42331;53.578;9.760;2023-04-07T05:14:12;10.65;;;4.82;;
56427;SDS011;42331;53.578;9.760;2023-04-07T05:16:43;5.95;;;3.80;;
56427;SDS011;42331;53.578;9.760;2023-04-07T05:19:13;8.93;;;4.82;;
56427;SDS011;42331;53.578;9.760;2023-04-07T05:21:44;8.40;;;4.90;;
56427;SDS011;42331;53.578;9.760;2023-04-07T05:24:15;7.38;;;4.30;;
56427;SDS011;42331;53.578;9.760;2023-04-07T05:26:46;10.73;;;5.05;;
56427;SDS011;42331;53.578;9.760;2023-04-07T05:29:16;7.43;;;4.50;;
56427;SDS011;42331;53.578;9.760;2023-04-07T05:31:47;8.03;;;5.00;;
56427;SDS011;42331;53.578;9.760;2023-04-07T05:34:18;8.27;;;3.65;;
56427;SDS011;42331;53.578;9.760;2023-04-07T05:36:49;10.23;;;4.93;;
56427;SDS011;42331;53.578;9.760;2023-04-07T05:39:20;5.67;;;3.47;;
56427;SDS011;42331;53.578;9.760;2023-04-07T05:41:53;8.88;;;5.63;;
56427;SDS011;42331;53.578;9.760;2023-04-07T05:44:25;11.13;;;5.22;;
56427;SDS011;42331;53.578;9.760;2023-04-07T05:46:56;9.30;;;4.57;;
56427;SDS011;42331;53.578;9.760;2023-04-07T05:49:27;6.82;;;3.67;;
56427;SDS011;42331;53.578;9.760;2023-04-07T05:51:58;9.05;;;4.85;;
56427;SDS011;42331;53.578;9.760;2023-04-07T05:54:28;9.88;;;4.72;;
56427;SDS011;42331;53.578;9.760;2023-04-07T05:56:59;8.32;;;5.20;;
56427;SDS011;42331;53.578;9.760;2023-04-07T05:59:30;8.30;;;4.93;;
56427;SDS011;42331;53.578;9.760;2023-04-07T06:02:01;7.05;;;3.85;;
56427;SDS011;42331;53.578;9.760;2023-04-07T06:04:32;9.10;;;5.07;;
56427;SDS011;42331;53.578;9.760;2023-04-07T06:07:04;8.95;;;4.63;;
56427;SDS011;42331;53.578;9.760;2023-04-07T06:09:35;9.13;;;4.55;;
56427;SDS011;42331;53.578;9.760;2023-04-07T06:12:06;9.43;;;4.57;;
56427;SDS011;42331;53.578;9.760;2023-04-07T06:14:38;8.90;;;4.78;;
56427;SDS011;42331;53.578;9.760;2023-04-07T06:17:09;7.22;;;4.32;;
56427;SDS011;42331;53.578;9.760;2023-04-07T06:19:39;10.38;;;5.10;;
56427;SDS011;42331;53.578;9.760;2023-04-07T06:22:10;7.65;;;4.47;;
56427;SDS011;42331;53.578;9.760;2023-04-07T06:24:41;7.60;;;4.47;;
56427;SDS011;42331;53.578;9.760;2023-04-07T06:27:12;6.95;;;3.45;;
56427;SDS011;42331;53.578;9.760;2023-04-07T06:29:42;9.77;;;4.72;;
56427;SDS011;42331;53.578;9.760;2023-04-07T06:32:13;9.50;;;4.53;;
56427;SDS011;42331;53.578;9.760;2023-04-07T06:34:44;8.52;;;3.90;;
56427;SDS011;42331;53.578;9.760;2023-04-07T06:37:14;8.77;;;4.55;;
56427;SDS011;42331;53.578;9.760;2023-04-07T06:39:45;7.47;;;4.10;;
56427;SDS011;42331;53.578;9.760;2023-04-07T06:42:16;8.20;;;4.43;;
56427;SDS011;42331;53.578;9.760;2023-04-07T06:44:47;8.85;;;5.15;;
56427;SDS011;42331;53.578;9.760;2023-04-07T06:47:17;7.78;;;4.68;;
56427;SDS011;42331;53.578;9.760;2023-04-07T06:49:48;10.38;;;4.40;;
56427;SDS011;42331;53.578;9.760;2023-04-07T06:52:19;7.47;;;4.30;;
56427;SDS011;42331;53.578;9.760;2023-04-07T06:54:50;8.83;;;4.73;;
56427;SDS011;42331;53.578;9.760;2023-04-07T06:57:21;9.02;;;4.40;;
56427;SDS011;42331;53.578;9.760;2023-04-07T06:59:52;7.03;;;3.88;;
56427;SDS011;42331;53.578;9.760;2023-04-07T07:02:22;7.38;;;4.07;;
56427;SDS011;42331;53.578;9.760;2023-04-07T07:04:53;6.55;;;3.20;;
56427;SDS011;42331;53.578;9.760;2023-04-07T07:07:23;8.57;;;4.22;;
56427;SDS011;42331;53.578;9.760;2023-04-07T07:09:55;6.87;;;3.50;;
56427;SDS011;42331;53.578;9.760;2023-04-07T07:12:25;9.18;;;4.40;;
56427;SDS011;42331;53.578;9.760;2023-04-07T07:14:56;8.75;;;4.50;;
56427;SDS011;42331;53.578;9.760;2023-04-07T07:17:27;9.43;;;4.72;;
56427;SDS011;42331;53.578;9.760;2023-04-07T07:19:57;6.60;;;4.07;;
56427;SDS011;42331;53.578;9.760;2023-04-07T07:22:28;10.10;;;4.72;;
56427;SDS011;42331;53.578;9.760;2023-04-07T07:24:59;8.75;;;4.03;;
56427;SDS011;42331;53.578;9.760;2023-04-07T07:27:32;7.93;;;4.13;;
56427;SDS011;42331;53.578;9.760;2023-04-07T07:30:05;8.05;;;4.28;;
56427;SDS011;42331;53.578;9.760;2023-04-07T07:32:39;8.43;;;4.55;;
56427;SDS011;42331;53.578;9.760;2023-04-07T07:35:09;7.47;;;4.25;;
56427;SDS011;42331;53.578;9.760;2023-04-07T07:37:40;8.32;;;4.22;;
56427;SDS011;42331;53.578;9.760;2023-04-07T07:40:13;8.40;;;4.13;;
56427;SDS011;42331;53.578;9.760;2023-04-07T07:42:45;8.50;;;4.80;;
56427;SDS011;42331;53.578;9.760;2023-04-07T07:45:16;9.00;;;4.60;;
56427;SDS011;42331;53.578;9.760;2023-04-07T07:47:48;8.38;;;4.80;;
56427;SDS011;42331;53.578;9.760;2023-04-07T07:50:19;9.57;;;4.80;;
56427;SDS011;42331;53.578;9.760;2023-04-07T07:52:50;8.82;;;4.53;;
56427;SDS011;42331;53.578;9.760;2023-04-07T07:55:21;10.65;;;5.50;;
56427;SDS011;42331;53.578;9.760;2023-04-07T07:57:51;7.80;;;4.32;;
56427;SDS011;42331;53.578;9.760;2023-04-07T08:00:22;12.93;;;4.50;;
56427;SDS011;42331;53.578;9.760;2023-04-07T08:02:53;6.03;;;3.53;;
56427;SDS011;42331;53.578;9.760;2023-04-07T08:05:24;9.23;;;4.38;;
56427;SDS011;42331;53.578;9.760;2023-04-07T08:07:55;7.65;;;4.32;;
56427;SDS011;42331;53.578;9.760;2023-04-07T08:10:25;8.90;;;4.15;;
56427;SDS011;42331;53.578;9.760;2023-04-07T08:12:56;9.43;;;4.38;;
56427;SDS011;42331;53.578;9.760;2023-04-07T08:15:27;10.32;;;4.13;;
56427;SDS011;42331;53.578;9.760;2023-04-07T08:17:58;6.35;;;3.88;;
56427;SDS011;42331;53.578;9.760;2023-04-07T08:20:29;6.63;;;3.95;;
56427;SDS011;42331;53.578;9.760;2023-04-07T08:23:06;7.65;;;3.78;;
56427;SDS011;42331;53.578;9.760;2023-04-07T08:25:37;8.75;;;3.85;;
56427;SDS011;42331;53.578;9.760;2023-04-07T08:28:09;8.23;;;4.05;;
56427;SDS011;42331;53.578;9.760;2023-04-07T08:30:40;7.20;;;4.47;;
56427;SDS011;42331;53.578;9.760;2023-04-07T08:33:10;6.63;;;4.30;;
56427;SDS011;42331;53.578;9.760;2023-04-07T08:35:41;13.40;;;4.57;;
56427;SDS011;42331;53.578;9.760;2023-04-07T08:38:13;8.93;;;4.47;;
56427;SDS011;42331;53.578;9.760;2023-04-07T08:40:44;8.00;;;4.55;;
56427;SDS011;42331;53.578;9.760;2023-04-07T08:43:15;6.90;;;4.38;;
56427;SDS011;42331;53.578;9.760;2023-04-07T08:45:48;8.35;;;4.50;;
56427;SDS011;42331;53.578;9.760;2023-04-07T08:48:21;8.40;;;4.28;;
56427;SDS011;42331;53.578;9.760;2023-04-07T08:50:54;8.20;;;3.67;;
56427;SDS011;42331;53.578;9.760;2023-04-07T08:53:27;8.35;;;3.88;;
56427;SDS011;42331;53.578;9.760;2023-04-07T08:56:04;6.68;;;3.80;;
56427;SDS011;42331;53.578;9.760;2023-04-07T08:58:35;6.93;;;3.60;;
56427;SDS011;42331;53.578;9.760;2023-04-07T09:01:07;6.55;;;4.10;;
56427;SDS011;42331;53.578;9.760;2023-04-07T09:03:38;8.70;;;3.95;;
56427;SDS011;42331;53.578;9.760;2023-04-07T09:06:09;8.32;;;3.97;;
56427;SDS011;42331;53.578;9.760;2023-04-07T09:08:40;6.72;;;3.92;;
56427;SDS011;42331;53.578;9.760;2023-04-07T09:11:11;7.97;;;3.97;;
56427;SDS011;42331;53.578;9.760;2023-04-07T09:13:42;5.95;;;3.50;;
56427;SDS011;42331;53.578;9.760;2023-04-07T09:16:12;8.23;;;4.03;;
56427;SDS011;42331;53.578;9.760;2023-04-07T09:18:44;6.22;;;3.50;;
56427;SDS011;42331;53.578;9.760;2023-04-07T09:21:14;5.72;;;3.25;;
56427;SDS011;42331;53.578;9.760;2023-04-07T09:23:45;8.00;;;3.47;;
56427;SDS011;42331;53.578;9.760;2023-04-07T09:28:56;6.38;;;3.50;;
56427;SDS011;42331;53.578;9.760;2023-04-07T09:34:22;8.20;;;3.65;;
56427;SDS011;42331;53.578;9.760;2023-04-07T09:36:55;7.35;;;3.42;;
56427;SDS011;42331;53.578;9.760;2023-04-07T09:39:26;11.10;;;4.63;;
56427;SDS011;42331;53.578;9.760;2023-04-07T09:41:58;7.35;;;4.18;;
56427;SDS011;42331;53.578;9.760;2023-04-07T09:44:38;10.35;;;4.10;;
56427;SDS011;42331;53.578;9.760;2023-04-07T09:47:10;8.52;;;3.90;;
56427;SDS011;42331;53.578;9.760;2023-04-07T09:49:48;7.22;;;3.92;;
56427;SDS011;42331;53.578;9.760;2023-04-07T09:52:25;6.43;;;3.88;;
56427;SDS011;42331;53.578;9.760;2023-04-07T09:55:21;6.72;;;3.90;;
56427;SDS011;42331;53.578;9.760;2023-04-07T09:57:52;5.40;;;3.90;;
56427;SDS011;42331;53.578;9.760;2023-04-07T10:00:25;6.28;;;3.92;;
56427;SDS011;42331;53.578;9.760;2023-04-07T10:02:56;7.40;;;4.35;;
56427;SDS011;42331;53.578;9.760;2023-04-07T10:05:27;7.57;;;3.70;;
56427;SDS011;42331;53.578;9.760;2023-04-07T10:07:59;9.02;;;4.30;;
56427;SDS011;42331;53.578;9.760;2023-04-07T10:10:37;6.15;;;3.88;;
56427;SDS011;42331;53.578;9.760;2023-04-07T10:13:13;7.00;;;4.30;;
56427;SDS011;42331;53.578;9.760;2023-04-07T10:15:44;6.95;;;4.20;;
56427;SDS011;42331;53.578;9.760;2023-04-07T10:18:18;8.27;;;4.15;;
56427;SDS011;42331;53.578;9.760;2023-04-07T10:20:50;8.57;;;4.10;;
56427;SDS011;42331;53.578;9.760;2023-04-07T10:26:34;8.68;;;4.68;;
56427;SDS011;42331;53.578;9.760;2023-04-07T10:29:09;6.63;;;4.00;;
56427;SDS011;42331;53.578;9.760;2023-04-07T10:31:42;7.07;;;3.88;;
56427;SDS011;42331;53.578;9.760;2023-04-07T10:34:14;6.60;;;3.80;;
56427;SDS011;42331;53.578;9.760;2023-04-07T10:39:42;6.10;;;3.78;;
56427;SDS011;42331;53.578;9.760;2023-04-07T10:45:06;9.10;;;3.53;;
56427;SDS011;42331;53.578;9.760;2023-04-07T10:50:43;7.80;;;3.47;;
56427;SDS011;42331;53.578;9.760;2023-04-07T10:53:33;5.70;;;3.30;;
56427;SDS011;42331;53.578;9.760;2023-04-07T10:56:03;5.40;;;2.90;;
56427;SDS011;42331;53.578;9.760;2023-04-07T10:58:35;5.27;;;3.13;;
56427;SDS011;42331;53.578;9.760;2023-04-07T11:03:38;5.37;;;3.10;;
56427;SDS011;42331;53.578;9.760;2023-04-07T11:06:23;5.25;;;2.83;;
56427;SDS011;42331;53.578;9.760;2023-04-07T11:11:36;6.80;;;2.90;;
56427;SDS011;42331;53.578;9.760;2023-04-07T11:14:08;5.60;;;2.80;;
56427;SDS011;42331;53.578;9.760;2023-04-07T11:16:42;5.68;;;3.30;;
56427;SDS011;42331;53.578;9.760;2023-04-07T11:19:14;4.95;;;2.90;;
56427;SDS011;42331;53.578;9.760;2023-04-07T11:21:45;5.53;;;3.30;;
56427;SDS011;42331;53.578;9.760;2023-04-07T11:27:14;6.60;;;3.05;;
56427;SDS011;42331;53.578;9.760;2023-04-07T11:29:45;6.15;;;3.63;;
56427;SDS011;42331;53.578;9.760;2023-04-07T11:32:21;8.10;;;3.97;;
56427;SDS011;42331;53.578;9.760;2023-04-07T11:34:54;7.90;;;3.58;;
56427;SDS011;42331;53.578;9.760;2023-04-07T11:37:26;7.07;;;3.53;;
56427;SDS011;42331;53.578;9.760;2023-04-07T11:39:57;8.15;;;3.92;;
56427;SDS011;42331;53.578;9.760;2023-04-07T11:45:02;6.35;;;3.30;;
56427;SDS011;42331;53.578;9.760;2023-04-07T11:47:34;8.85;;;4.07;;
56427;SDS011;42331;53.578;9.760;2023-04-07T11:50:05;6.50;;;3.78;;
56427;SDS011;42331;53.578;9.760;2023-04-07T11:52:43;6.73;;;3.43;;
56427;SDS011;42331;53.578;9.760;2023-04-07T11:55:18;8.35;;;3.95;;
56427;SDS011;42331;53.578;9.760;2023-04-07T11:58:03;6.28;;;3.50;;
56427;SDS011;42331;53.578;9.760;2023-04-07T12:00:35;6.72;;;4.13;;
56427;SDS011;42331;53.578;9.760;2023-04-07T12:03:09;7.32;;;4.03;;
56427;SDS011;42331;53.578;9.760;2023-04-07T12:05:43;7.45;;;3.85;;
56427;SDS011;42331;53.578;9.760;2023-04-07T12:08:14;8.80;;;4.03;;
56427;SDS011;42331;53.578;9.760;2023-04-07T12:10:45;7.30;;;4.15;;
56427;SDS011;42331;53.578;9.760;2023-04-07T12:13:17;7.90;;;4.40;;
56427;SDS011;42331;53.578;9.760;2023-04-07T12:15:48;6.80;;;4.27;;
56427;SDS011;42331;53.578;9.760;2023-04-07T12:18:19;6.40;;;4.07;;
56427;SDS011;42331;53.578;9.760;2023-04-07T12:20:50;7.30;;;3.40;;
56427;SDS011;42331;53.578;9.760;2023-04-07T12:23:21;6.57;;;3.30;;
56427;SDS011;42331;53.578;9.760;2023-04-07T12:25:52;5.65;;;3.25;;
56427;SDS011;42331;53.578;9.760;2023-04-07T12:28:23;6.35;;;3.72;;
56427;SDS011;42331;53.578;9.760;2023-04-07T12:30:54;7.38;;;3.30;;
56427;SDS011;42331;53.578;9.760;2023-04-07T12:33:25;6.40;;;3.50;;
56427;SDS011;42331;53.578;9.760;2023-04-07T12:35:56;6.07;;;3.10;;
56427;SDS011;42331;53.578;9.760;2023-04-07T12:38:27;7.13;;;3.20;;
56427;SDS011;42331;53.578;9.760;2023-04-07T12:40:58;6.15;;;3.10;;
56427;SDS011;42331;53.578;9.760;2023-04-07T12:43:33;7.32;;;3.47;;
56427;SDS011;42331;53.578;9.760;2023-04-07T12:48:35;6.45;;;3.20;;
56427;SDS011;42331;53.578;9.760;2023-04-07T12:51:06;6.82;;;3.58;;
56427;SDS011;42331;53.578;9.760;2023-04-07T12:53:36;6.97;;;3.15;;
56427;SDS011;42331;53.578;9.760;2023-04-07T12:56:07;6.90;;;3.10;;
56427;SDS011;42331;53.578;9.760;2023-04-07T12:58:39;5.38;;;3.17;;
56427;SDS011;42331;53.578;9.760;2023-04-07T13:01:09;4.38;;;2.70;;
56427;SDS011;42331;53.578;9.760;2023-04-07T13:03:41;5.47;;;2.55;;
56427;SDS011;42331;53.578;9.760;2023-04-07T13:06:12;3.83;;;2.30;;
56427;SDS011;42331;53.578;9.760;2023-04-07T13:08:43;3.95;;;2.40;;
56427;SDS011;42331;53.578;9.760;2023-04-07T13:11:13;6.65;;;2.72;;
56427;SDS011;42331;53.578;9.760;2023-04-07T13:13:44;6.65;;;2.85;;
56427;SDS011;42331;53.578;9.760;2023-04-07T13:16:15;5.97;;;2.75;;
56427;SDS011;42331;53.578;9.760;2023-04-07T13:18:46;5.40;;;2.95;;
56427;SDS011;42331;53.578;9.760;2023-04-07T13:21:16;4.45;;;2.65;;
56427;SDS011;42331;53.578;9.760;2023-04-07T13:23:47;6.32;;;2.40;;
56427;SDS011;42331;53.578;9.760;2023-04-07T13:28:50;4.85;;;2.30;;
56427;SDS011;42331;53.578;9.760;2023-04-07T13:31:20;5.18;;;2.47;;
56427;SDS011;42331;53.578;9.760;2023-04-07T13:33:52;5.63;;;2.80;;
56427;SDS011;42331;53.578;9.760;2023-04-07T13:36:23;7.15;;;2.42;;
56427;SDS011;42331;53.578;9.760;2023-04-07T13:38:56;4.40;;;2.05;;
56427;SDS011;42331;53.578;9.760;2023-04-07T13:41:27;5.13;;;2.40;;
56427;SDS011;42331;53.578;9.760;2023-04-07T13:43:57;4.55;;;2.28;;
56427;SDS011;42331;53.578;9.760;2023-04-07T13:46:29;4.72;;;2.40;;
56427;SDS011;42331;53.578;9.760;2023-04-07T13:49:00;5.32;;;2.35;;
56427;SDS011;42331;53.578;9.760;2023-04-07T13:51:31;4.68;;;1.98;;
56427;SDS011;42331;53.578;9.760;2023-04-07T13:54:03;4.10;;;1.90;;
56427;SDS011;42331;53.578;9.760;2023-04-07T13:56:33;3.72;;;2.03;;
56427;SDS011;42331;53.578;9.760;2023-04-07T13:59:04;3.75;;;2.08;;
56427;SDS011;42331;53.578;9.760;2023-04-07T14:01:36;2.55;;;1.73;;
56427;SDS011;42331;53.578;9.760;2023-04-07T14:04:08;3.70;;;1.77;;
56427;SDS011;42331;53.578;9.760;2023-04-07T14:06:39;4.53;;;2.00;;
56427;SDS011;42331;53.578;9.760;2023-04-07T14:09:10;3.90;;;1.65;;
56427;SDS011;42331;53.578;9.760;2023-04-07T14:11:41;3.33;;;1.88;;
56427;SDS011;42331;53.578;9.760;2023-04-07T14:14:12;4.07;;;1.83;;
56427;SDS011;42331;53.578;9.760;2023-04-07T14:16:42;3.67;;;1.88;;
56427;SDS011;42331;53.578;9.760;2023-04-07T14:19:13;4.85;;;2.35;;
56427;SDS011;42331;53.578;9.760;2023-04-07T14:21:44;4.97;;;2.30;;
56427;SDS011;42331;53.578;9.760;2023-04-07T14:24:15;3.95;;;2.10;;
56427;SDS011;42331;53.578;9.760;2023-04-07T14:26:46;5.80;;;2.00;;
56427;SDS011;42331;53.578;9.760;2023-04-07T14:29:17;3.90;;;2.13;;
56427;SDS011;42331;53.578;9.760;2023-04-07T14:31:47;5.20;;;2.25;;
56427;SDS011;42331;53.578;9.760;2023-04-07T14:34:18;5.45;;;2.15;;
56427;SDS011;42331;53.578;9.760;2023-04-07T14:36:53;5.95;;;2.00;;
56427;SDS011;42331;53.578;9.760;2023-04-07T14:39:24;4.15;;;2.17;;
56427;SDS011;42331;53.578;9.760;2023-04-07T14:41:55;4.63;;;2.33;;
56427;SDS011;42331;53.578;9.760;2023-04-07T14:44:26;6.90;;;2.47;;
56427;SDS011;42331;53.578;9.760;2023-04-07T14:46:58;5.43;;;2.55;;
56427;SDS011;42331;53.578;9.760;2023-04-07T14:49:29;4.53;;;2.38;;
56427;SDS011;42331;53.578;9.760;2023-04-07T14:51:59;4.75;;;2.90;;
56427;SDS011;42331;53.578;9.760;2023-04-07T14:54:30;5.82;;;2.40;;
56427;SDS011;42331;53.578;9.760;2023-04-07T14:57:01;6.85;;;2.80;;
56427;SDS011;42331;53.578;9.760;2023-04-07T14:59:32;5.00;;;2.40;;
56427;SDS011;42331;53.578;9.760;2023-04-07T15:02:03;5.00;;;2.10;;
56427;SDS011;42331;53.578;9.760;2023-04-07T15:04:34;3.97;;;2.47;;
56427;SDS011;42331;53.578;9.760;2023-04-07T15:07:04;6.78;;;2.70;;
56427;SDS011;42331;53.578;9.760;2023-04-07T15:09:35;5.25;;;2.40;;
56427;SDS011;42331;53.578;9.760;2023-04-07T15:12:06;4.50;;;2.40;;
56427;SDS011;42331;53.578;9.760;2023-04-07T15:14:37;7.55;;;2.80;;
56427;SDS011;42331;53.578;9.760;2023-04-07T15:17:08;5.25;;;2.60;;
56427;SDS011;42331;53.578;9.760;2023-04-07T15:19:38;7.53;;;3.13;;
56427;SDS011;42331;53.578;9.760;2023-04-07T15:22:09;6.53;;;2.72;;
56427;SDS011;42331;53.578;9.760;2023-04-07T15:24:41;6.00;;;2.80;;
56427;SDS011;42331;53.578;9.760;2023-04-07T15:27:12;4.72;;;2.75;;
56427;SDS011;42331;53.578;9.760;2023-04-07T15:29:42;6.43;;;2.92;;
56427;SDS011;42331;53.578;9.760;2023-04-07T15:32:13;5.45;;;2.95;;
56427;SDS011;42331;53.578;9.760;2023-04-07T15:34:44;6.40;;;3.05;;
56427;SDS011;42331;53.578;9.760;2023-04-07T15:37:16;6.25;;;2.90;;
56427;SDS011;42331;53.578;9.760;2023-04-07T15:39:49;6.72;;;3.30;;
56427;SDS011;42331;53.578;9.760;2023-04-07T15:42:20;5.18;;;2.85;;
56427;SDS011;42331;53.578;9.760;2023-04-07T15:44:52;5.57;;;2.83;;
56427;SDS011;42331;53.578;9.760;2023-04-07T15:47:22;4.43;;;2.85;;
56427;SDS011;42331;53.578;9.760;2023-04-07T15:49:53;5.50;;;2.85;;
56427;SDS011;42331;53.578;9.760;2023-04-07T15:52:24;4.35;;;2.78;;
56427;SDS011;42331;53.578;9.760;2023-04-07T15:54:56;6.82;;;2.65;;